Time;durP1;ratioP1;P1;durP2;ratioP2;P2;SDS_P1;SDS_P2;PMS_P1;PMS_P2;Temp;Humidity;BMP_temperature;BMP_pressure;BME280_temperature;BME280_humidity;BME280_pressure;Samples;Min_cycle;Max_cycle;Signal;HPM_P1;HPM_P2
2020/12/06 00:00:05;;;;;;;1999.90;999.90;;;2.50;99.90;;;;;;5091423;28;20123;-84
2020/12/06 00:02:32;;;;;;;1999.90;999.90;;;2.40;99.90;;;;;;5093816;28;20052;-84
2020/12/06 00:04:59;;;;;;;1999.90;999.90;;;2.40;99.90;;;;;;5092599;28;20044;-84
2020/12/06 00:07:27;;;;;;;1999.90;999.90;;;2.30;99.90;;;;;;5092579;28;20051;-84
2020/12/06 00:09:54;;;;;;;1999.90;999.90;;;2.30;99.90;;;;;;5092761;28;20105;-84
2020/12/06 00:12:21;;;;;;;1999.90;999.90;;;2.30;99.90;;;;;;5093308;28;20486;-84
2020/12/06 00:14:48;;;;;;;1999.90;999.90;;;2.30;99.90;;;;;;5093000;28;20062;-84
2020/12/06 00:17:14;;;;;;;1999.90;999.90;;;2.20;99.90;;;;;;5092193;28;20137;-84
2020/12/06 00:19:41;;;;;;;1999.90;999.90;;;2.20;99.90;;;;;;5092619;28;20075;-84
2020/12/06 00:22:12;;;;;;;1999.90;999.90;;;2.20;99.90;;;;;;5092561;28;20171;-84
2020/12/06 00:24:40;;;;;;;1999.90;999.90;;;2.20;99.90;;;;;;5093038;28;20146;-84
2020/12/06 00:27:07;;;;;;;1999.90;999.90;;;2.20;99.90;;;;;;5093047;28;20094;-84
2020/12/06 00:29:34;;;;;;;1999.90;999.90;;;2.10;99.90;;;;;;5080140;28;20056;-84
2020/12/06 00:32:01;;;;;;;1999.90;999.90;;;2.10;99.90;;;;;;5092718;28;20405;-84
2020/12/06 00:34:28;;;;;;;1999.90;999.90;;;2.10;99.90;;;;;;5091991;28;20064;-84
2020/12/06 00:36:55;;;;;;;1999.90;999.90;;;2.10;99.90;;;;;;5092290;28;20397;-84
2020/12/06 00:39:22;;;;;;;1999.90;999.90;;;2.10;99.90;;;;;;5089459;28;20052;-84
2020/12/06 00:41:50;;;;;;;1999.90;999.90;;;2.00;99.90;;;;;;5082947;28;20151;-84
2020/12/06 00:44:17;;;;;;;1999.90;999.90;;;2.00;99.90;;;;;;5079336;28;20056;-86
2020/12/06 00:46:44;;;;;;;1999.90;999.90;;;2.00;99.90;;;;;;5093374;28;20058;-86
2020/12/06 00:49:11;;;;;;;1999.90;999.90;;;2.00;99.90;;;;;;5093134;28;20155;-86
2020/12/06 00:51:38;;;;;;;1999.90;999.90;;;2.00;99.90;;;;;;5091082;28;20056;-87
2020/12/06 00:54:05;;;;;;;1999.90;999.90;;;2.00;99.90;;;;;;5092536;28;20143;-86
2020/12/06 00:56:32;;;;;;;1999.90;999.90;;;1.90;99.90;;;;;;5092796;28;20713;-86
2020/12/06 00:59:00;;;;;;;1999.90;999.90;;;1.90;99.90;;;;;;5092369;28;20069;-87
2020/12/06 01:01:26;;;;;;;1999.90;999.90;;;1.90;99.90;;;;;;5091432;28;20336;-87
2020/12/06 01:03:53;;;;;;;1999.90;999.90;;;1.90;99.90;;;;;;5092568;28;20478;-87
2020/12/06 01:06:20;;;;;;;1999.90;999.90;;;1.90;99.90;;;;;;5092431;28;20058;-86
2020/12/06 01:08:47;;;;;;;1999.90;999.90;;;1.80;99.90;;;;;;5092381;28;20058;-86
2020/12/06 01:11:15;;;;;;;1999.90;999.90;;;1.80;99.90;;;;;;5092834;28;20551;-86
2020/12/06 01:13:42;;;;;;;1999.90;999.90;;;1.80;99.90;;;;;;5092455;28;20051;-87
2020/12/06 01:16:13;;;;;;;1999.90;999.90;;;1.70;99.90;;;;;;5091820;28;20044;-86
2020/12/06 01:18:40;;;;;;;1999.90;999.90;;;1.70;99.90;;;;;;5091952;28;20539;-86
2020/12/06 01:21:09;;;;;;;1999.90;999.90;;;1.70;99.90;;;;;;5092915;28;20139;-86
2020/12/06 01:23:36;;;;;;;1999.90;999.90;;;1.70;99.90;;;;;;5081344;28;20135;-87
2020/12/06 01:26:03;;;;;;;1999.90;999.90;;;1.60;99.90;;;;;;5082242;28;20131;-86
2020/12/06 01:28:31;;;;;;;1999.90;999.90;;;1.60;99.90;;;;;;5092741;28;20166;-86
2020/12/06 01:30:58;;;;;;;1999.90;999.90;;;1.60;99.90;;;;;;5090111;28;20071;-86
2020/12/06 01:33:25;;;;;;;1999.90;999.90;;;1.60;99.90;;;;;;5092363;28;20079;-86
2020/12/06 01:35:52;;;;;;;1999.90;999.90;;;1.60;99.90;;;;;;5091279;28;20585;-86
2020/12/06 01:38:19;;;;;;;1999.90;999.90;;;1.50;99.90;;;;;;5085778;28;20136;-86
2020/12/06 01:40:46;;;;;;;1999.90;999.90;;;1.50;99.90;;;;;;5090799;28;20135;-87
2020/12/06 01:43:13;;;;;;;1999.90;999.90;;;1.50;99.90;;;;;;5084230;28;20485;-86
2020/12/06 01:45:40;;;;;;;1999.90;999.90;;;1.50;99.90;;;;;;5093189;28;20052;-86
2020/12/06 01:48:09;;;;;;;1999.90;999.90;;;1.40;99.90;;;;;;5093299;28;20436;-86
2020/12/06 01:50:38;;;;;;;1999.90;999.90;;;1.40;99.90;;;;;;5093593;28;20059;-86
2020/12/06 01:53:06;;;;;;;1999.90;999.90;;;1.40;99.90;;;;;;5089452;28;20055;-87
2020/12/06 01:55:33;;;;;;;1999.90;999.90;;;1.30;99.90;;;;;;5093167;28;20054;-86
2020/12/06 01:58:05;;;;;;;1999.90;999.90;;;1.30;99.90;;;;;;5092062;28;20052;-88
2020/12/06 02:00:32;;;;;;;1999.90;999.90;;;1.30;99.90;;;;;;5091708;28;20079;-87
2020/12/06 02:02:59;;;;;;;1999.90;999.90;;;1.30;99.90;;;;;;5091569;28;20163;-87
2020/12/06 02:05:28;;;;;;;1999.90;999.90;;;1.30;99.90;;;;;;5090272;28;20043;-86
2020/12/06 02:07:58;;;;;;;1999.90;999.90;;;1.30;99.90;;;;;;5091125;28;20127;-86
2020/12/06 02:10:25;;;;;;;1999.90;999.90;;;1.20;99.90;;;;;;5091406;28;20558;-86
2020/12/06 02:12:53;;;;;;;1999.90;999.90;;;1.20;99.90;;;;;;5092493;28;20056;-86
2020/12/06 02:15:21;;;;;;;1999.90;999.90;;;1.20;99.90;;;;;;5088820;28;20052;-86
2020/12/06 02:17:48;;;;;;;1999.90;999.90;;;1.20;99.90;;;;;;5092093;28;20382;-86
2020/12/06 02:20:18;;;;;;;1999.90;999.90;;;1.10;99.90;;;;;;5091187;28;20094;-86
2020/12/06 02:22:45;;;;;;;1999.90;999.90;;;1.10;99.90;;;;;;5091338;28;20055;-87
2020/12/06 02:25:12;;;;;;;1999.90;999.90;;;1.10;99.90;;;;;;5090882;28;20043;-86
2020/12/06 02:27:39;;;;;;;1999.90;999.90;;;1.10;99.90;;;;;;5081069;28;20059;-87
2020/12/06 02:30:07;;;;;;;1999.90;999.90;;;1.10;99.90;;;;;;5090988;28;20056;-87
2020/12/06 02:32:34;;;;;;;1999.90;999.90;;;1.10;99.90;;;;;;5091300;28;20150;-87
2020/12/06 02:35:01;;;;;;;1999.90;999.90;;;1.00;99.90;;;;;;5091733;28;20052;-86
2020/12/06 02:37:29;;;;;;;1999.90;999.90;;;1.00;99.90;;;;;;5090947;28;20132;-86
2020/12/06 02:39:56;;;;;;;1999.90;999.90;;;1.00;99.90;;;;;;5090946;28;20108;-86
2020/12/06 02:42:23;;;;;;;1999.90;999.90;;;1.00;99.90;;;;;;5090619;28;20062;-86
2020/12/06 02:44:50;;;;;;;1999.90;999.90;;;1.00;99.90;;;;;;5090603;28;20055;-87
2020/12/06 02:47:17;;;;;;;1999.90;999.90;;;1.00;99.90;;;;;;5090915;28;20143;-87
2020/12/06 02:49:44;;;;;;;1999.90;999.90;;;1.00;99.90;;;;;;5090964;28;20113;-86
2020/12/06 02:52:10;;;;;;;1999.90;999.90;;;1.00;99.90;;;;;;5090416;28;20051;-86
2020/12/06 02:54:38;;;;;;;1999.90;999.90;;;0.90;99.90;;;;;;5091305;28;20080;-87
2020/12/06 02:57:05;;;;;;;1999.90;999.90;;;0.90;99.90;;;;;;5090705;28;20058;-87
2020/12/06 02:59:32;;;;;;;1999.90;999.90;;;0.90;99.90;;;;;;5090206;28;20048;-86
2020/12/06 03:01:59;;;;;;;1999.90;999.90;;;0.90;99.90;;;;;;5091020;28;20052;-86
2020/12/06 03:04:26;;;;;;;1999.90;999.90;;;0.90;99.90;;;;;;5090194;28;20047;-86
2020/12/06 03:06:56;;;;;;;1999.90;999.90;;;0.90;99.90;;;;;;5090922;28;20066;-86
2020/12/06 03:09:23;;;;;;;1999.90;999.90;;;0.80;99.90;;;;;;5090667;28;20075;-87
2020/12/06 03:11:50;;;;;;;1999.90;999.90;;;0.80;99.90;;;;;;5090407;28;20169;-86
2020/12/06 03:14:17;;;;;;;1999.90;999.90;;;0.80;99.90;;;;;;5091600;28;20048;-86
2020/12/06 03:16:44;;;;;;;1999.90;999.90;;;0.80;99.90;;;;;;5095153;28;20058;-85
2020/12/06 03:19:11;;;;;;;1999.90;999.90;;;0.80;99.90;;;;;;5097411;28;20044;-86
2020/12/06 03:21:37;;;;;;;1999.90;999.90;;;0.80;99.90;;;;;;5097053;28;20055;-86
2020/12/06 03:24:04;;;;;;;1999.90;999.90;;;0.80;99.90;;;;;;5102656;28;20362;-85
2020/12/06 03:26:31;;;;;;;1999.90;999.90;;;0.80;99.90;;;;;;5107745;28;20190;-87
2020/12/06 03:28:59;;;;;;;1999.90;999.90;;;0.70;99.90;;;;;;5103929;28;20143;-86
2020/12/06 03:31:26;;;;;;;1999.90;999.90;;;0.80;99.90;;;;;;5099065;28;20320;-87
2020/12/06 03:33:53;;;;;;;1999.90;999.90;;;0.80;99.90;;;;;;5097889;28;20044;-87
2020/12/06 03:36:21;;;;;;;1999.90;999.90;;;0.80;99.90;;;;;;5097200;28;20047;-87
2020/12/06 03:38:47;;;;;;;1999.90;999.90;;;0.80;99.90;;;;;;5097328;28;20127;-87
2020/12/06 03:41:14;;;;;;;1999.90;999.90;;;0.80;99.90;;;;;;5097057;28;20048;-87
2020/12/06 03:43:41;;;;;;;1999.90;999.90;;;0.80;99.90;;;;;;5096959;28;20052;-86
2020/12/06 03:46:09;;;;;;;1999.90;999.90;;;0.80;99.90;;;;;;5096920;28;20163;-86
2020/12/06 03:48:36;;;;;;;1999.90;999.90;;;0.80;99.90;;;;;;5084118;28;20046;-86
2020/12/06 03:51:03;;;;;;;1999.90;999.90;;;0.80;99.90;;;;;;5096118;28;20138;-87
2020/12/06 03:53:30;;;;;;;1999.90;999.90;;;0.80;99.90;;;;;;5097316;28;20513;-88
2020/12/06 03:55:57;;;;;;;1999.90;999.90;;;0.80;99.90;;;;;;5098796;28;20075;-94
2020/12/06 03:58:24;;;;;;;1999.90;999.90;;;0.70;99.90;;;;;;5100540;28;20109;-93
2020/12/06 04:00:51;;;;;;;1999.90;999.90;;;0.70;99.90;;;;;;5100269;28;20090;-93
2020/12/06 04:03:18;;;;;;;1999.90;999.90;;;0.70;99.90;;;;;;5100161;28;20084;-93
2020/12/06 04:05:45;;;;;;;1999.90;999.90;;;0.80;99.90;;;;;;5100644;28;20542;-92
2020/12/06 04:08:12;;;;;;;1999.90;999.90;;;0.80;99.90;;;;;;5099612;28;20056;-93
2020/12/06 04:10:39;;;;;;;1999.90;999.90;;;0.80;99.90;;;;;;5099398;28;20146;-84
2020/12/06 04:13:06;;;;;;;1999.90;999.90;;;0.70;99.90;;;;;;5093999;28;20159;-83
2020/12/06 04:15:33;;;;;;;1999.90;999.90;;;0.70;99.90;;;;;;5095864;28;20062;-83
2020/12/06 04:18:01;;;;;;;1999.90;999.90;;;0.70;99.90;;;;;;5095549;28;20073;-84
2020/12/06 04:20:29;;;;;;;1999.90;999.90;;;0.70;99.90;;;;;;5096139;28;20058;-83
2020/12/06 04:22:56;;;;;;;1999.90;999.90;;;0.70;99.90;;;;;;5102613;28;20442;-92
2020/12/06 04:25:23;;;;;;;1999.90;999.90;;;0.70;99.90;;;;;;5106627;28;20083;-91
2020/12/06 04:27:50;;;;;;;1999.90;999.90;;;0.70;99.90;;;;;;5103364;28;20119;-92
2020/12/06 04:30:17;;;;;;;1999.90;999.90;;;0.70;99.90;;;;;;5102670;28;20075;-93
2020/12/06 04:32:44;;;;;;;1999.90;999.90;;;0.70;99.90;;;;;;5101366;28;20094;-92
2020/12/06 04:35:11;;;;;;;1999.90;999.90;;;0.70;99.90;;;;;;5101440;28;20055;-92
2020/12/06 04:37:39;;;;;;;1999.90;999.90;;;0.70;99.90;;;;;;5100511;28;20528;-92
2020/12/06 04:40:06;;;;;;;1999.90;999.90;;;0.70;99.90;;;;;;5100686;28;20062;-92
2020/12/06 04:42:33;;;;;;;1999.90;999.90;;;0.70;99.90;;;;;;5100834;28;20671;-91
2020/12/06 04:45:01;;;;;;;1999.90;999.90;;;0.70;99.90;;;;;;5096063;28;20048;-83
2020/12/06 04:47:42;;;;;;;1999.90;999.90;;;0.70;99.90;;;;;;5092118;28;20040;-84
2020/12/06 04:50:12;;;;;;;1999.90;999.90;;;0.70;99.90;;;;;;5092657;28;20062;-84
2020/12/06 04:52:44;;;;;;;1999.90;999.90;;;0.70;99.90;;;;;;5092465;28;20048;-84
2020/12/06 04:55:16;;;;;;;1999.90;999.90;;;0.70;99.90;;;;;;5092562;28;20134;-84
2020/12/06 04:57:46;;;;;;;1999.90;999.90;;;0.70;99.90;;;;;;5092180;28;20047;-84
2020/12/06 05:00:13;;;;;;;1999.90;999.90;;;0.70;99.90;;;;;;5091382;28;20052;-84
2020/12/06 05:02:42;;;;;;;1999.90;999.90;;;0.70;99.90;;;;;;5092098;28;20086;-84
2020/12/06 05:05:11;;;;;;;1999.90;999.90;;;0.70;99.90;;;;;;5092090;28;20134;-83
2020/12/06 05:07:38;;;;;;;1999.90;999.90;;;0.70;99.90;;;;;;5091518;28;20055;-84
2020/12/06 05:10:07;;;;;;;1999.90;999.90;;;0.70;99.90;;;;;;5091545;28;20099;-84
2020/12/06 05:12:34;;;;;;;1999.90;999.90;;;0.70;99.90;;;;;;5092232;28;20094;-84
2020/12/06 05:15:03;;;;;;;1999.90;999.90;;;0.70;99.90;;;;;;5091195;28;20051;-85
2020/12/06 05:17:33;;;;;;;1999.90;999.90;;;0.70;99.90;;;;;;5091719;28;20131;-84
2020/12/06 05:20:09;;;;;;;1999.90;999.90;;;0.70;99.90;;;;;;5087029;28;20383;-84
2020/12/06 05:22:37;;;;;;;1999.90;999.90;;;0.70;99.90;;;;;;5086628;28;20384;-85
2020/12/06 05:25:08;;;;;;;1999.90;999.90;;;0.70;99.90;;;;;;5091543;28;20146;-84
2020/12/06 05:27:36;;;;;;;1999.90;999.90;;;0.80;99.90;;;;;;5091348;28;20433;-85
2020/12/06 05:30:03;;;;;;;1999.90;999.90;;;0.80;99.90;;;;;;5091073;28;20401;-84
2020/12/06 05:32:30;;;;;;;1999.90;999.90;;;0.80;99.90;;;;;;5091558;28;20078;-84
2020/12/06 05:34:58;;;;;;;1999.90;999.90;;;0.80;99.90;;;;;;5091748;28;20140;-85
2020/12/06 05:37:25;;;;;;;1999.90;999.90;;;0.80;99.90;;;;;;5091301;28;20495;-84
2020/12/06 05:40:01;;;;;;;1999.90;999.90;;;0.80;99.90;;;;;;5088347;28;20143;-84
2020/12/06 05:42:30;;;;;;;1999.90;999.90;;;0.90;99.90;;;;;;5091052;28;20051;-85
2020/12/06 05:44:57;;;;;;;1999.90;999.90;;;0.90;99.90;;;;;;5091124;28;20207;-84
2020/12/06 05:47:25;;;;;;;1999.90;999.90;;;0.90;99.90;;;;;;5088057;28;20052;-85
2020/12/06 05:49:54;;;;;;;1999.90;999.90;;;0.90;99.90;;;;;;5091077;28;20135;-84
2020/12/06 05:52:21;;;;;;;1999.90;999.90;;;0.90;99.90;;;;;;5090622;28;20086;-84
2020/12/06 05:54:49;;;;;;;1999.90;999.90;;;0.90;99.90;;;;;;5091025;28;20060;-84
2020/12/06 05:57:16;;;;;;;1999.90;999.90;;;0.90;99.90;;;;;;5090735;28;20070;-84
2020/12/06 05:59:44;;;;;;;1999.90;999.90;;;0.90;99.90;;;;;;5090631;28;20058;-85
2020/12/06 06:02:13;;;;;;;1999.90;999.90;;;1.00;99.90;;;;;;5091815;28;20044;-85
2020/12/06 06:04:41;;;;;;;1999.90;999.90;;;1.00;99.90;;;;;;5098723;28;20098;-85
2020/12/06 06:07:22;;;;;;;1999.90;999.90;;;1.00;99.90;;;;;;5113532;28;20072;-85
2020/12/06 06:09:54;;;;;;;1999.90;999.90;;;1.00;99.90;;;;;;5092627;28;20054;-94
2020/12/06 06:12:32;;;;;;;1999.90;999.90;;;1.00;99.90;;;;;;5094607;28;20478;-94
2020/12/06 06:15:02;;;;;;;1999.90;999.90;;;1.00;99.90;;;;;;5088148;28;20067;-94
2020/12/06 06:17:31;;;;;;;1999.90;999.90;;;1.00;99.90;;;;;;5093924;28;20458;-94
2020/12/06 06:19:58;;;;;;;1999.90;999.90;;;1.00;99.90;;;;;;5093518;28;20351;-93
2020/12/06 06:22:32;;;;;;;1999.90;999.90;;;1.00;99.90;;;;;;5090600;28;20044;-93
2020/12/06 06:25:01;;;;;;;1999.90;999.90;;;1.00;99.90;;;;;;5090611;28;20159;-93
2020/12/06 06:27:33;;;;;;;1999.90;999.90;;;1.00;99.90;;;;;;5095176;28;20430;-94
2020/12/06 06:30:03;;;;;;;1999.90;999.90;;;1.00;99.90;;;;;;5093599;28;20484;-94
2020/12/06 06:32:31;;;;;;;1999.90;999.90;;;1.00;99.90;;;;;;5093962;28;20048;-94
2020/12/06 06:34:59;;;;;;;1999.90;999.90;;;1.00;99.90;;;;;;5092442;28;20435;-93
2020/12/06 06:37:29;;;;;;;1999.90;999.90;;;1.10;99.90;;;;;;5081729;28;20051;-94
2020/12/06 06:40:01;;;;;;;1999.90;999.90;;;1.10;99.90;;;;;;5093899;28;20044;-93
2020/12/06 06:42:36;;;;;;;1999.90;999.90;;;1.10;99.90;;;;;;5092933;28;20071;-93
2020/12/06 06:46:01;;;;;;;1999.90;999.90;;;1.10;99.90;;;;;;5080586;28;20083;-93
2020/12/06 06:48:28;;;;;;;1999.90;999.90;;;1.10;99.90;;;;;;5086556;28;20040;-85
2020/12/06 06:50:56;;;;;;;1999.90;999.90;;;1.10;99.90;;;;;;5086094;28;20097;-85
2020/12/06 06:53:25;;;;;;;1999.90;999.90;;;1.20;99.90;;;;;;5090879;28;20051;-84
2020/12/06 06:55:53;;;;;;;1999.90;999.90;;;1.10;99.90;;;;;;5087457;28;20048;-84
2020/12/06 06:58:23;;;;;;;1999.90;999.90;;;1.10;99.90;;;;;;5089723;28;20048;-85
2020/12/06 07:00:51;;;;;;;1999.90;999.90;;;1.20;99.90;;;;;;5089840;28;20412;-85
2020/12/06 07:03:19;;;;;;;1999.90;999.90;;;1.20;99.90;;;;;;5089438;28;20048;-84
2020/12/06 07:05:46;;;;;;;1999.90;999.90;;;1.20;99.90;;;;;;5089408;28;20143;-84
2020/12/06 07:08:15;;;;;;;1999.90;999.90;;;1.20;99.90;;;;;;5089854;28;20178;-84
2020/12/06 07:10:43;;;;;;;1999.90;999.90;;;1.20;99.90;;;;;;5090670;28;20048;-84
2020/12/06 07:13:12;;;;;;;1999.90;999.90;;;1.20;99.90;;;;;;5089428;28;20802;-84
2020/12/06 07:15:39;;;;;;;1999.90;999.90;;;1.20;99.90;;;;;;5089077;28;20507;-84
2020/12/06 07:18:18;;;;;;;1999.90;999.90;;;1.20;99.90;;;;;;5090599;28;20056;-84
2020/12/06 07:20:45;;;;;;;1999.90;999.90;;;1.30;99.90;;;;;;5089092;28;20402;-85
2020/12/06 07:23:15;;;;;;;1999.90;999.90;;;1.30;99.90;;;;;;5089162;28;20050;-84
2020/12/06 07:25:42;;;;;;;1999.90;999.90;;;1.30;99.90;;;;;;5089485;28;20063;-84
2020/12/06 07:28:10;;;;;;;1999.90;999.90;;;1.30;99.90;;;;;;5089690;28;20131;-84
2020/12/06 07:30:43;;;;;;;1999.90;999.90;;;1.30;99.90;;;;;;5090047;28;20139;-84
2020/12/06 07:33:10;;;;;;;1999.90;999.90;;;1.30;99.90;;;;;;5087846;28;20119;-84
2020/12/06 07:35:42;;;;;;;1999.90;999.90;;;1.40;99.90;;;;;;5089198;28;20056;-84
2020/12/06 07:38:09;;;;;;;1999.90;999.90;;;1.40;99.90;;;;;;5089550;28;20183;-84
2020/12/06 07:40:36;;;;;;;1999.90;999.90;;;1.40;99.90;;;;;;5090885;28;20051;-90
2020/12/06 07:43:11;;;;;;;1999.90;999.90;;;1.40;99.90;;;;;;5082199;28;20051;-90
2020/12/06 07:45:38;;;;;;;1999.90;999.90;;;1.40;99.90;;;;;;5084167;28;20147;-90
2020/12/06 07:48:05;;;;;;;1999.90;999.90;;;1.50;99.90;;;;;;5085195;28;20135;-89
2020/12/06 07:50:32;;;;;;;1999.90;999.90;;;1.40;99.90;;;;;;5091136;28;20048;-90
2020/12/06 07:53:02;;;;;;;1999.90;999.90;;;1.40;99.90;;;;;;5090970;28;20123;-89
2020/12/06 07:55:30;;;;;;;1999.90;999.90;;;1.50;99.90;;;;;;5091313;28;20052;-90
2020/12/06 07:58:02;;;;;;;1999.90;999.90;;;1.50;99.90;;;;;;5089693;28;20052;-89
2020/12/06 08:00:36;;;;;;;1999.90;999.90;;;1.50;99.90;;;;;;5090256;28;20483;-89
2020/12/06 08:03:06;;;;;;;1999.90;999.90;;;1.50;99.90;;;;;;5091794;28;20094;-90
2020/12/06 08:05:36;;;;;;;1999.90;999.90;;;1.50;99.90;;;;;;5093745;28;20052;-87
2020/12/06 08:08:07;;;;;;;1999.90;999.90;;;1.50;99.90;;;;;;5093676;28;20493;-87
2020/12/06 08:10:35;;;;;;;1999.90;999.90;;;1.60;99.90;;;;;;5079885;28;20190;-87
2020/12/06 08:13:02;;;;;;;1999.90;999.90;;;1.60;99.90;;;;;;5093219;28;20062;-87
2020/12/06 08:15:30;;;;;;;1999.90;999.90;;;1.60;99.90;;;;;;5092066;28;20109;-87
2020/12/06 08:17:57;;;;;;;1999.90;999.90;;;1.60;99.90;;;;;;5092655;28;20482;-87
2020/12/06 08:20:26;;;;;;;1999.90;999.90;;;1.60;99.90;;;;;;5092253;28;20047;-87
2020/12/06 08:22:56;;;;;;;1999.90;999.90;;;1.60;99.90;;;;;;5093102;28;20124;-87
2020/12/06 08:25:27;;;;;;;1999.90;999.90;;;1.60;99.90;;;;;;5092663;28;20047;-86
2020/12/06 08:28:00;;;;;;;1999.90;999.90;;;1.70;99.90;;;;;;5092512;28;20093;-87
2020/12/06 08:30:29;;;;;;;1999.90;999.90;;;1.70;99.90;;;;;;5091790;28;20099;-87
2020/12/06 08:32:58;;;;;;;1999.90;999.90;;;1.70;99.90;;;;;;5093127;28;20059;-87
2020/12/06 08:35:39;;;;;;;1999.90;999.90;;;1.70;99.90;;;;;;5092214;28;20117;-87
2020/12/06 08:38:17;;;;;;;1999.90;999.90;;;1.70;99.90;;;;;;5082291;28;20131;-87
2020/12/06 08:41:01;;;;;;;1999.90;999.90;;;1.80;99.90;;;;;;5092011;28;20048;-87
2020/12/06 08:43:47;;;;;;;1999.90;999.90;;;1.80;99.90;;;;;;5092377;28;20106;-86
2020/12/06 08:46:16;;;;;;;1999.90;999.90;;;1.80;99.90;;;;;;5090698;28;20357;-87
2020/12/06 08:48:44;;;;;;;1999.90;999.90;;;1.80;99.90;;;;;;5092250;28;20055;-87
2020/12/06 08:51:25;;;;;;;1999.90;999.90;;;1.80;99.90;;;;;;5091767;28;20040;-87
2020/12/06 08:53:52;;;;;;;1999.90;999.90;;;1.80;99.90;;;;;;5092387;28;20142;-87
2020/12/06 08:56:30;;;;;;;1999.90;999.90;;;1.90;99.90;;;;;;5089494;28;20131;-87
2020/12/06 08:59:02;;;;;;;1999.90;999.90;;;1.90;99.90;;;;;;5091694;28;20052;-86
2020/12/06 09:01:29;;;;;;;1999.90;999.90;;;1.80;99.90;;;;;;5092122;28;20123;-87
2020/12/06 09:03:57;;;;;;;1999.90;999.90;;;1.90;99.90;;;;;;5092627;28;20429;-86
2020/12/06 09:06:24;;;;;;;1999.90;999.90;;;1.90;99.90;;;;;;5091756;28;20090;-87
2020/12/06 09:08:51;;;;;;;1999.90;999.90;;;1.90;99.90;;;;;;5091947;28;20063;-86
2020/12/06 09:11:21;;;;;;;1999.90;999.90;;;2.00;99.90;;;;;;5077843;28;20139;-87
2020/12/06 09:13:49;;;;;;;1999.90;999.90;;;2.00;99.90;;;;;;5079751;28;20044;-87
2020/12/06 09:16:16;;;;;;;1999.90;999.90;;;2.00;99.90;;;;;;5090029;28;20062;-87
2020/12/06 09:18:43;;;;;;;1999.90;999.90;;;2.00;99.90;;;;;;5090359;28;20055;-87
2020/12/06 09:21:11;;;;;;;1999.90;999.90;;;2.00;99.90;;;;;;5092030;28;20070;-87
2020/12/06 09:23:38;;;;;;;1999.90;999.90;;;2.10;99.90;;;;;;5091488;28;20127;-87
2020/12/06 09:26:05;;;;;;;1999.90;999.90;;;2.10;99.90;;;;;;5091781;28;20048;-87
2020/12/06 09:28:33;;;;;;;1999.90;999.90;;;2.10;99.90;;;;;;5091584;28;20044;-88
2020/12/06 09:31:01;;;;;;;1999.90;999.90;;;2.10;99.90;;;;;;5091468;28;20056;-87
2020/12/06 09:33:29;;;;;;;1999.90;999.90;;;2.10;99.90;;;;;;5091894;28;20131;-87
2020/12/06 09:35:56;;;;;;;1999.90;999.90;;;2.20;99.90;;;;;;5090758;28;20044;-88
2020/12/06 09:38:24;;;;;;;1999.90;999.90;;;2.20;99.90;;;;;;5091728;28;20060;-88
2020/12/06 09:40:51;;;;;;;1999.90;999.90;;;2.20;99.90;;;;;;5090232;28;20135;-88
2020/12/06 09:43:18;;;;;;;1999.90;999.90;;;2.30;99.90;;;;;;5092244;28;20126;-88
2020/12/06 09:45:46;;;;;;;1999.90;999.90;;;2.20;99.90;;;;;;5091524;28;20130;-88
2020/12/06 09:48:14;;;;;;;1999.90;999.90;;;2.30;99.90;;;;;;5091864;28;20139;-88
2020/12/06 09:50:41;;;;;;;1999.90;999.90;;;2.30;99.90;;;;;;5091668;28;20127;-88
2020/12/06 09:53:08;;;;;;;1999.90;999.90;;;2.40;99.90;;;;;;5092056;28;20044;-88
2020/12/06 09:55:35;;;;;;;1999.90;999.90;;;2.40;99.90;;;;;;5092193;28;20056;-87
2020/12/06 09:58:04;;;;;;;1999.90;999.90;;;2.40;99.90;;;;;;5091989;28;20139;-88
2020/12/06 10:00:33;;;;;;;1999.90;999.90;;;2.50;99.90;;;;;;5093429;28;20040;-88
2020/12/06 10:03:00;;;;;;;1999.90;999.90;;;2.50;99.90;;;;;;5092104;28;20056;-88
2020/12/06 10:05:31;;;;;;;1999.90;999.90;;;2.50;99.90;;;;;;5092610;28;20079;-88
2020/12/06 10:07:58;;;;;;;1999.90;999.90;;;2.50;99.90;;;;;;5102937;28;20108;-89
2020/12/06 10:10:25;;;;;;;1999.90;999.90;;;2.60;99.90;;;;;;5097650;28;20498;-88
2020/12/06 10:12:52;;;;;;;1999.90;999.90;;;2.60;99.90;;;;;;5109760;28;20035;-87
2020/12/06 10:15:19;;;;;;;1999.90;999.90;;;2.70;99.90;;;;;;5113838;28;20581;-89
2020/12/06 10:17:46;;;;;;;1999.90;999.90;;;2.70;99.90;;;;;;5090409;28;20474;-89
2020/12/06 10:20:13;;;;;;;1999.90;999.90;;;2.80;99.90;;;;;;5091438;28;20044;-88
2020/12/06 10:22:40;;;;;;;1999.90;999.90;;;2.80;99.90;;;;;;5092087;28;20132;-88
2020/12/06 10:25:07;;;;;;;1999.90;999.90;;;2.80;99.90;;;;;;5090915;28;20040;-89
2020/12/06 10:27:34;;;;;;;1999.90;999.90;;;2.90;99.90;;;;;;5091896;28;20135;-89
2020/12/06 10:30:02;;;;;;;1999.90;999.90;;;2.90;99.90;;;;;;5091876;28;20040;-89
2020/12/06 10:32:29;;;;;;;1999.90;999.90;;;2.90;99.90;;;;;;5091664;28;20044;-88
2020/12/06 10:34:56;;;;;;;1999.90;999.90;;;3.00;99.90;;;;;;5091750;28;20414;-86
2020/12/06 10:37:24;;;;;;;1999.90;999.90;;;3.00;99.90;;;;;;5091171;28;20055;-86
2020/12/06 10:39:53;;;;;;;1999.90;999.90;;;3.00;99.90;;;;;;5093771;28;20080;-87
2020/12/06 10:42:20;;;;;;;1999.90;999.90;;;3.10;99.90;;;;;;5090835;28;20052;-87
2020/12/06 10:44:47;;;;;;;1999.90;999.90;;;3.20;99.90;;;;;;5091273;28;20138;-87
2020/12/06 10:47:15;;;;;;;1999.90;999.90;;;3.20;99.90;;;;;;5091835;28;20562;-89
2020/12/06 10:49:41;;;;;;;1999.90;999.90;;;3.30;99.90;;;;;;5091221;28;20043;-86
2020/12/06 10:52:09;;;;;;;1999.90;999.90;;;3.30;99.90;;;;;;5091062;28;20124;-87
2020/12/06 10:54:37;;;;;;;1999.90;999.90;;;3.30;99.90;;;;;;5091077;28;20406;-87
2020/12/06 10:57:05;;;;;;;1999.90;999.90;;;3.40;99.90;;;;;;5091127;28;20082;-87
2020/12/06 10:59:32;;;;;;;1999.90;999.90;;;3.40;99.90;;;;;;5090256;28;20084;-87
2020/12/06 11:02:02;;;;;;;1999.90;999.90;;;3.40;99.90;;;;;;5090550;28;20059;-88
2020/12/06 11:04:29;;;;;;;1999.90;999.90;;;3.50;99.90;;;;;;5091409;28;20059;-88
2020/12/06 11:06:58;;;;;;;1999.90;999.90;;;3.50;99.90;;;;;;5091799;28;20048;-87
2020/12/06 11:09:26;;;;;;;1999.90;999.90;;;3.50;99.90;;;;;;5091306;28;20486;-87
2020/12/06 11:11:53;;;;;;;1999.90;999.90;;;3.50;99.90;;;;;;5079770;28;20048;-87
2020/12/06 11:14:21;;;;;;;1999.90;999.90;;;3.50;99.90;;;;;;5091155;28;20142;-87
2020/12/06 11:16:50;;;;;;;1999.90;999.90;;;3.60;99.90;;;;;;5091164;28;20056;-87
2020/12/06 11:19:17;;;;;;;1999.90;999.90;;;3.50;99.90;;;;;;5091015;28;20076;-87
2020/12/06 11:21:44;;;;;;;1999.90;999.90;;;3.50;99.90;;;;;;5091472;28;20083;-87
2020/12/06 11:24:11;;;;;;;1999.90;999.90;;;3.60;99.90;;;;;;5091062;28;20072;-87
2020/12/06 11:26:39;;;;;;;1999.90;999.90;;;3.60;99.90;;;;;;5091615;28;20135;-87
2020/12/06 11:29:05;;;;;;;1999.90;999.90;;;3.60;99.90;;;;;;5090649;28;20123;-87
2020/12/06 11:31:34;;;;;;;1999.90;999.90;;;3.60;99.90;;;;;;5091974;28;20091;-87
2020/12/06 11:34:02;;;;;;;1999.90;999.90;;;3.60;99.90;;;;;;5090836;28;20421;-87
2020/12/06 11:36:29;;;;;;;1999.90;999.90;;;3.70;99.90;;;;;;5092431;28;20052;-88
2020/12/06 11:38:56;;;;;;;1999.90;999.90;;;3.70;99.90;;;;;;5094854;28;20139;-88
2020/12/06 11:41:26;;;;;;;1999.90;999.90;;;3.80;99.90;;;;;;5095087;28;20044;-88
2020/12/06 11:43:53;;;;;;;1999.90;999.90;;;3.80;99.90;;;;;;5095074;28;20602;-88
2020/12/06 11:46:21;;;;;;;1999.90;999.90;;;3.80;99.90;;;;;;5094531;28;20052;-88
2020/12/06 11:48:49;;;;;;;1999.90;999.90;;;3.80;99.90;;;;;;5094851;28;20059;-88
2020/12/06 11:51:18;;;;;;;1999.90;999.90;;;3.90;99.90;;;;;;5092503;28;20576;-88
2020/12/06 11:53:45;;;;;;;1999.90;999.90;;;3.90;99.90;;;;;;5094562;28;20132;-88
2020/12/06 11:56:13;;;;;;;1999.90;999.90;;;3.90;99.90;;;;;;5094038;28;20500;-88
2020/12/06 11:58:41;;;;;;;1999.90;999.90;;;4.00;99.90;;;;;;5094899;28;20056;-88
2020/12/06 12:01:08;;;;;;;1999.90;999.90;;;4.00;99.90;;;;;;5094136;28;20048;-88
2020/12/06 12:03:35;;;;;;;1999.90;999.90;;;4.00;99.90;;;;;;5091952;28;20351;-88
2020/12/06 12:06:04;;;;;;;1999.90;999.90;;;4.10;99.90;;;;;;5086608;28;20150;-88
2020/12/06 12:08:31;;;;;;;1999.90;999.90;;;4.10;99.90;;;;;;5094615;28;20156;-88
2020/12/06 12:10:59;;;;;;;1999.90;999.90;;;4.10;99.90;;;;;;5094961;28;20062;-88
2020/12/06 12:13:26;;;;;;;1999.90;999.90;;;4.20;99.90;;;;;;5099638;28;20082;-88